AIC247 VAAH-VISR
Flight info
| Callsign | AIC247 |
|---|---|
| Flight time | N/A |
| Altitude | 37000 |
| Route | UUD1A UUD Z9 ATLUN Z1 PKT/N0452F380 W22 ATNUS W24 MESAR DCT |
| Aircraft | A20N/M-SDE2E3FGHIRWXY/LB1 |
Departure
| Time | 2026-05-05 13:08 |
|---|---|
| Airport | Sardar Vallabh Patel International Airport (VAAH) |
Arrival
| Time | N/A |
|---|---|
| Airport | Sheikh ul Alam International Airport (VISR) |
| Time | Latitude | Longitude | Altitude | Speed | Heading |
|---|---|---|---|---|---|
| 2026-05-05 12:27 | 23.07152 | 72.61866 | 186 ft | 0 kts | 44° |
| 2026-05-05 13:01 | 23.07151 | 72.61866 | 186 ft | 0 kts | 45° |
| 2026-05-05 13:02 | 23.07141 | 72.61855 | 186 ft | 2 kts | 44° |
| 2026-05-05 13:02 | 23.07131 | 72.61844 | 186 ft | 2 kts | 61° |
| 2026-05-05 13:02 | 23.07127 | 72.61828 | 187 ft | 2 kts | 92° |
| 2026-05-05 13:02 | 23.07128 | 72.61816 | 187 ft | 2 kts | 113° |
| 2026-05-05 13:03 | 23.07133 | 72.61807 | 187 ft | 0 kts | 132° |
| 2026-05-05 13:03 | 23.07138 | 72.61801 | 187 ft | 0 kts | 135° |
| 2026-05-05 13:05 | 23.07137 | 72.61803 | 187 ft | 0 kts | 135° |
| 2026-05-05 13:05 | 23.07123 | 72.61819 | 187 ft | 5 kts | 134° |
| 2026-05-05 13:06 | 23.07080 | 72.61867 | 187 ft | 11 kts | 134° |
| 2026-05-05 13:06 | 23.07011 | 72.61942 | 189 ft | 16 kts | 136° |
| 2026-05-05 13:06 | 23.06919 | 72.62026 | 189 ft | 11 kts | 149° |
| 2026-05-05 13:06 | 23.06836 | 72.61990 | 189 ft | 13 kts | 171° |
| 2026-05-05 13:07 | 23.06775 | 72.62054 | 189 ft | 14 kts | 136° |
| 2026-05-05 13:07 | 23.06693 | 72.62143 | 189 ft | 19 kts | 134° |
| 2026-05-05 13:07 | 23.06622 | 72.62258 | 189 ft | 18 kts | 64° |
| 2026-05-05 13:07 | 23.06727 | 72.62380 | 189 ft | 41 kts | 45° |
| 2026-05-05 13:08 | 23.07102 | 72.62782 | 187 ft | 108 kts | 44° |
| 2026-05-05 13:08 | 23.07781 | 72.63504 | 190 ft | 162 kts | 45° |
| 2026-05-05 13:08 | 23.08648 | 72.64426 | 539 ft | 176 kts | 46° |
| 2026-05-05 13:08 | 23.09537 | 72.65320 | 1000 ft | 186 kts | 40° |
| 2026-05-05 13:09 | 23.10439 | 72.66065 | 1358 ft | 200 kts | 38° |
| 2026-05-05 13:09 | 23.11140 | 72.66640 | 1621 ft | 210 kts | 38° |
| 2026-05-05 13:09 | 23.12347 | 72.67625 | 2053 ft | 227 kts | 39° |
| 2026-05-05 13:09 | 23.13561 | 72.68621 | 2273 ft | 243 kts | 39° |
| 2026-05-05 13:10 | 23.14901 | 72.69728 | 2557 ft | 258 kts | 39° |
| 2026-05-05 13:10 | 23.15655 | 72.70352 | 2707 ft | 266 kts | 39° |
| 2026-05-05 13:10 | 23.17162 | 72.71603 | 3086 ft | 277 kts | 39° |
| 2026-05-05 13:10 | 23.18647 | 72.72835 | 3684 ft | 279 kts | 39° |
| 2026-05-05 13:11 | 23.20216 | 72.74139 | 4367 ft | 280 kts | 40° |
| 2026-05-05 13:11 | 23.21757 | 72.75422 | 5036 ft | 280 kts | 40° |
| 2026-05-05 13:11 | 23.23321 | 72.76725 | 5727 ft | 281 kts | 40° |
| 2026-05-05 13:11 | 23.24877 | 72.78023 | 6425 ft | 281 kts | 40° |
| 2026-05-05 13:12 | 23.26438 | 72.79327 | 7135 ft | 282 kts | 40° |
| 2026-05-05 13:12 | 23.27934 | 72.80573 | 7818 ft | 282 kts | 39° |
| 2026-05-05 13:12 | 23.29573 | 72.81870 | 8551 ft | 283 kts | 37° |
| 2026-05-05 13:12 | 23.31164 | 72.83096 | 9253 ft | 284 kts | 37° |
| 2026-05-05 13:13 | 23.32783 | 72.84342 | 9951 ft | 285 kts | 36° |
| 2026-05-05 13:13 | 23.34149 | 72.85409 | 10334 ft | 293 kts | 34° |
| 2026-05-05 13:13 | 23.35864 | 72.86730 | 10607 ft | 308 kts | 34° |
| 2026-05-05 13:13 | 23.37676 | 72.88120 | 10879 ft | 323 kts | 34° |
| 2026-05-05 13:14 | 23.39551 | 72.89563 | 11136 ft | 337 kts | 34° |
| 2026-05-05 13:14 | 23.41497 | 72.91068 | 11382 ft | 351 kts | 34° |
| 2026-05-05 13:14 | 23.43549 | 72.92659 | 11618 ft | 364 kts | 34° |
| 2026-05-05 13:14 | 23.45648 | 72.94289 | 11841 ft | 376 kts | 34° |
| 2026-05-05 13:15 | 23.47802 | 72.95972 | 12049 ft | 387 kts | 36° |
| 2026-05-05 13:15 | 23.50004 | 72.97749 | 12380 ft | 394 kts | 36° |
| 2026-05-05 13:15 | 23.52219 | 72.99554 | 12864 ft | 397 kts | 36° |
| 2026-05-05 13:15 | 23.54433 | 73.01359 | 13337 ft | 400 kts | 36° |
| 2026-05-05 13:16 | 23.56691 | 73.03197 | 13795 ft | 403 kts | 36° |
| 2026-05-05 13:16 | 23.58962 | 73.05043 | 14250 ft | 406 kts | 36° |
| 2026-05-05 13:16 | 23.61230 | 73.06886 | 14697 ft | 409 kts | 36° |
| 2026-05-05 13:16 | 23.63537 | 73.08760 | 15142 ft | 412 kts | 36° |
| 2026-05-05 13:17 | 23.65838 | 73.10631 | 15578 ft | 415 kts | 36° |
| 2026-05-05 13:17 | 23.68143 | 73.12505 | 16008 ft | 418 kts | 36° |
| 2026-05-05 13:17 | 23.70505 | 73.14426 | 16438 ft | 421 kts | 36° |
| 2026-05-05 13:17 | 23.72847 | 73.16331 | 16857 ft | 424 kts | 36° |
| 2026-05-05 13:18 | 23.75203 | 73.18252 | 17273 ft | 426 kts | 36° |
| 2026-05-05 13:18 | 23.77595 | 73.20208 | 17684 ft | 429 kts | 36° |
| 2026-05-05 13:18 | 23.79991 | 73.22169 | 18092 ft | 432 kts | 36° |
| 2026-05-05 13:18 | 23.82414 | 73.24152 | 18518 ft | 434 kts | 35° |
| 2026-05-05 13:19 | 23.84858 | 73.26155 | 18966 ft | 437 kts | 35° |
| 2026-05-05 13:19 | 23.87292 | 73.28148 | 19430 ft | 439 kts | 35° |
| 2026-05-05 13:19 | 23.89756 | 73.30168 | 19922 ft | 441 kts | 35° |
| 2026-05-05 13:19 | 23.92223 | 73.32191 | 20406 ft | 443 kts | 35° |
| 2026-05-05 13:20 | 23.94668 | 73.34196 | 20859 ft | 445 kts | 35° |
| 2026-05-05 13:20 | 23.97138 | 73.36222 | 21295 ft | 448 kts | 35° |
| 2026-05-05 13:20 | 23.99680 | 73.38309 | 21718 ft | 450 kts | 35° |
| 2026-05-05 13:20 | 24.02182 | 73.40364 | 22116 ft | 453 kts | 35° |
| 2026-05-05 13:21 | 24.04710 | 73.42441 | 22496 ft | 456 kts | 35° |
| 2026-05-05 13:21 | 24.07252 | 73.44531 | 22865 ft | 459 kts | 34° |
| 2026-05-05 13:21 | 24.09825 | 73.46648 | 23222 ft | 461 kts | 34° |
| 2026-05-05 13:21 | 24.12392 | 73.48753 | 23562 ft | 464 kts | 34° |
| 2026-05-05 13:22 | 24.14988 | 73.50878 | 23880 ft | 467 kts | 34° |
| 2026-05-05 13:22 | 24.17590 | 73.53011 | 24178 ft | 469 kts | 34° |
| 2026-05-05 13:22 | 24.20240 | 73.55189 | 24530 ft | 470 kts | 34° |
| 2026-05-05 13:22 | 24.22847 | 73.57336 | 24964 ft | 469 kts | 34° |
| 2026-05-05 13:23 | 24.25451 | 73.59483 | 25386 ft | 469 kts | 34° |
| 2026-05-05 13:23 | 24.28051 | 73.61630 | 25771 ft | 468 kts | 34° |
| 2026-05-05 13:23 | 24.30647 | 73.63775 | 26148 ft | 468 kts | 34° |
| 2026-05-05 13:23 | 24.33254 | 73.65932 | 26523 ft | 468 kts | 35° |
| 2026-05-05 13:24 | 24.35831 | 73.68079 | 26877 ft | 468 kts | 35° |
| 2026-05-05 13:24 | 24.38426 | 73.70240 | 27230 ft | 468 kts | 35° |
| 2026-05-05 13:24 | 24.41003 | 73.72384 | 27580 ft | 468 kts | 35° |
| 2026-05-05 13:24 | 24.43613 | 73.74550 | 27927 ft | 468 kts | 35° |
| 2026-05-05 13:25 | 24.46219 | 73.76709 | 28268 ft | 468 kts | 35° |
| 2026-05-05 13:25 | 24.48821 | 73.78867 | 28610 ft | 468 kts | 34° |
| 2026-05-05 13:25 | 24.51423 | 73.81025 | 28949 ft | 468 kts | 34° |
| 2026-05-05 13:25 | 24.53998 | 73.83138 | 29275 ft | 467 kts | 32° |
| 2026-05-05 13:26 | 24.56845 | 73.84860 | 29566 ft | 463 kts | 20° |
| 2026-05-05 13:26 | 24.59879 | 73.85846 | 29873 ft | 459 kts | 7° |
| 2026-05-05 13:26 | 24.63038 | 73.86099 | 30190 ft | 454 kts | 355° |
| 2026-05-05 13:26 | 24.66175 | 73.85609 | 30496 ft | 450 kts | 343° |
| 2026-05-05 13:27 | 24.69094 | 73.84435 | 30788 ft | 447 kts | 333° |
| 2026-05-05 13:27 | 24.71846 | 73.82942 | 31099 ft | 446 kts | 332° |
| 2026-05-05 13:27 | 24.74714 | 73.81574 | 31382 ft | 448 kts | 338° |
| 2026-05-05 13:27 | 24.77706 | 73.80577 | 31661 ft | 450 kts | 345° |
| 2026-05-05 13:28 | 24.80786 | 73.80020 | 31944 ft | 453 kts | 352° |
| 2026-05-05 13:28 | 24.83930 | 73.79915 | 32208 ft | 455 kts | 360° |
| 2026-05-05 13:28 | 24.87073 | 73.80271 | 32457 ft | 458 kts | 7° |
| 2026-05-05 13:28 | 24.90203 | 73.80920 | 32720 ft | 458 kts | 9° |
| 2026-05-05 13:29 | 24.93350 | 73.81643 | 32972 ft | 459 kts | 9° |
| 2026-05-05 13:29 | 24.96447 | 73.82365 | 33214 ft | 459 kts | 9° |
| 2026-05-05 13:29 | 24.99593 | 73.83099 | 33447 ft | 459 kts | 9° |
| 2026-05-05 13:29 | 25.02692 | 73.83817 | 33654 ft | 459 kts | 8° |
| 2026-05-05 13:30 | 25.05825 | 73.84537 | 33858 ft | 459 kts | 8° |
| 2026-05-05 13:30 | 25.08942 | 73.85250 | 34063 ft | 460 kts | 7° |
| 2026-05-05 13:30 | 25.12091 | 73.85968 | 34279 ft | 459 kts | 7° |
| 2026-05-05 13:30 | 25.15201 | 73.86673 | 34493 ft | 459 kts | 7° |
| 2026-05-05 13:31 | 25.18314 | 73.87376 | 34694 ft | 459 kts | 7° |
| 2026-05-05 13:31 | 25.21462 | 73.88090 | 34900 ft | 458 kts | 7° |
| 2026-05-05 13:31 | 25.24560 | 73.88793 | 35099 ft | 458 kts | 7° |
| 2026-05-05 13:31 | 25.27700 | 73.89507 | 35276 ft | 458 kts | 7° |
| 2026-05-05 13:32 | 25.30822 | 73.90219 | 35421 ft | 459 kts | 7° |
| 2026-05-05 13:32 | 25.33937 | 73.90930 | 35560 ft | 459 kts | 7° |
| 2026-05-05 13:32 | 25.37091 | 73.91650 | 35698 ft | 460 kts | 7° |
| 2026-05-05 13:32 | 25.40216 | 73.92365 | 35823 ft | 460 kts | 7° |
| 2026-05-05 13:33 | 25.43352 | 73.93082 | 35953 ft | 460 kts | 7° |
| 2026-05-05 13:33 | 25.46478 | 73.93799 | 36077 ft | 461 kts | 7° |
| 2026-05-05 13:33 | 25.49608 | 73.94517 | 36184 ft | 461 kts | 7° |
| 2026-05-05 13:33 | 25.52763 | 73.95239 | 36279 ft | 462 kts | 7° |
| 2026-05-05 13:34 | 25.55907 | 73.95961 | 36387 ft | 462 kts | 7° |
| 2026-05-05 13:34 | 25.59027 | 73.96677 | 36487 ft | 463 kts | 7° |
| 2026-05-05 13:34 | 25.65351 | 73.98128 | 36648 ft | 464 kts | 7° |
| 2026-05-05 13:35 | 25.71644 | 73.99574 | 36807 ft | 465 kts | 7° |
| 2026-05-05 13:35 | 25.77996 | 74.01035 | 36960 ft | 466 kts | 7° |
| 2026-05-05 13:36 | 25.84338 | 74.02480 | 36982 ft | 467 kts | 7° |
| 2026-05-05 13:36 | 25.90703 | 74.03925 | 36986 ft | 467 kts | 7° |
| 2026-05-05 13:37 | 25.97061 | 74.05373 | 36987 ft | 467 kts | 7° |
| 2026-05-05 13:37 | 26.03406 | 74.06818 | 36986 ft | 466 kts | 7° |
| 2026-05-05 13:38 | 26.09779 | 74.08271 | 36987 ft | 467 kts | 7° |
| 2026-05-05 13:38 | 26.16099 | 74.09712 | 36987 ft | 467 kts | 7° |
| 2026-05-05 13:39 | 26.22457 | 74.11164 | 36987 ft | 466 kts | 7° |
| 2026-05-05 13:39 | 26.28818 | 74.12620 | 36984 ft | 467 kts | 7° |
| 2026-05-05 13:40 | 26.35176 | 74.14077 | 36962 ft | 467 kts | 7° |
| 2026-05-05 13:40 | 26.41526 | 74.15535 | 36920 ft | 466 kts | 7° |
| 2026-05-05 13:41 | 26.47885 | 74.16996 | 36882 ft | 467 kts | 7° |
| 2026-05-05 13:41 | 26.54226 | 74.18456 | 36862 ft | 467 kts | 7° |
| 2026-05-05 13:42 | 26.60600 | 74.19901 | 36856 ft | 467 kts | 6° |
| 2026-05-05 13:42 | 26.66938 | 74.21324 | 36851 ft | 467 kts | 6° |
| 2026-05-05 13:43 | 26.73301 | 74.22756 | 36849 ft | 467 kts | 7° |
| 2026-05-05 13:43 | 26.79653 | 74.24190 | 36852 ft | 467 kts | 7° |
| 2026-05-05 13:44 | 26.86014 | 74.25628 | 36864 ft | 467 kts | 6° |
| 2026-05-05 13:44 | 26.92358 | 74.27068 | 36873 ft | 467 kts | 6° |
| 2026-05-05 13:45 | 26.98692 | 74.28511 | 36877 ft | 464 kts | 5° |
| 2026-05-05 13:45 | 27.05041 | 74.29954 | 36879 ft | 462 kts | 4° |
| 2026-05-05 13:46 | 27.11286 | 74.31366 | 36877 ft | 460 kts | 4° |
| 2026-05-05 13:46 | 27.17525 | 74.32775 | 36878 ft | 460 kts | 4° |
| 2026-05-05 13:47 | 27.23813 | 74.34203 | 36877 ft | 460 kts | 4° |
| 2026-05-05 13:47 | 27.30071 | 74.35627 | 36877 ft | 460 kts | 4° |
| 2026-05-05 13:48 | 27.36355 | 74.37060 | 36877 ft | 460 kts | 4° |
| 2026-05-05 13:48 | 27.42620 | 74.38492 | 36877 ft | 460 kts | 5° |
| 2026-05-05 13:49 | 27.48928 | 74.39934 | 36877 ft | 460 kts | 4° |
| 2026-05-05 13:49 | 27.55165 | 74.41363 | 36877 ft | 460 kts | 4° |
| 2026-05-05 13:50 | 27.61452 | 74.42804 | 36877 ft | 460 kts | 4° |
| 2026-05-05 13:50 | 27.67694 | 74.44237 | 36877 ft | 460 kts | 4° |
| 2026-05-05 13:51 | 27.73975 | 74.45680 | 36877 ft | 460 kts | 4° |
| 2026-05-05 13:51 | 27.80272 | 74.47129 | 36877 ft | 460 kts | 4° |
| 2026-05-05 13:52 | 27.86531 | 74.48571 | 36877 ft | 460 kts | 4° |
| 2026-05-05 13:52 | 27.92807 | 74.50019 | 36877 ft | 460 kts | 4° |
| 2026-05-05 13:53 | 27.99088 | 74.51470 | 36876 ft | 460 kts | 4° |
| 2026-05-05 13:53 | 28.05362 | 74.52921 | 36877 ft | 460 kts | 5° |
| 2026-05-05 13:54 | 28.11619 | 74.54372 | 36878 ft | 460 kts | 5° |
| 2026-05-05 13:54 | 28.17863 | 74.55820 | 36877 ft | 460 kts | 4° |
| 2026-05-05 13:55 | 28.24121 | 74.57260 | 36877 ft | 460 kts | 4° |
| 2026-05-05 13:55 | 28.30393 | 74.58665 | 36878 ft | 460 kts | 4° |
| 2026-05-05 13:56 | 28.36660 | 74.60072 | 36878 ft | 459 kts | 4° |
| 2026-05-05 13:56 | 28.42884 | 74.61478 | 36877 ft | 460 kts | 4° |
| 2026-05-05 13:57 | 28.49159 | 74.62897 | 36878 ft | 460 kts | 4° |
| 2026-05-05 13:57 | 28.55401 | 74.64311 | 36877 ft | 459 kts | 4° |
| 2026-05-05 13:58 | 28.61690 | 74.65750 | 36875 ft | 460 kts | 5° |
| 2026-05-05 13:58 | 28.67956 | 74.67378 | 36877 ft | 462 kts | 6° |
| 2026-05-05 13:59 | 28.77301 | 74.69861 | 36877 ft | 462 kts | 6° |
| 2026-05-05 14:00 | 28.86687 | 74.72330 | 36877 ft | 462 kts | 6° |
| 2026-05-05 14:00 | 28.92941 | 74.73972 | 36877 ft | 462 kts | 6° |
| 2026-05-05 14:01 | 28.99209 | 74.75618 | 36877 ft | 462 kts | 6° |
| 2026-05-05 14:01 | 29.05451 | 74.77264 | 36876 ft | 464 kts | 5° |
| 2026-05-05 14:02 | 29.11778 | 74.78929 | 36876 ft | 466 kts | 5° |
| 2026-05-05 14:02 | 29.18106 | 74.80590 | 36877 ft | 467 kts | 5° |
| 2026-05-05 14:03 | 29.24381 | 74.82242 | 36877 ft | 467 kts | 5° |
| 2026-05-05 14:03 | 29.30712 | 74.83912 | 36877 ft | 467 kts | 5° |
| 2026-05-05 14:04 | 29.37042 | 74.85586 | 36877 ft | 467 kts | 5° |
| 2026-05-05 14:04 | 29.43348 | 74.87256 | 36877 ft | 467 kts | 5° |
| 2026-05-05 14:05 | 29.49653 | 74.88927 | 36877 ft | 467 kts | 5° |
| 2026-05-05 14:05 | 29.55964 | 74.90603 | 36877 ft | 467 kts | 5° |
| 2026-05-05 14:06 | 29.62300 | 74.92287 | 36877 ft | 467 kts | 5° |
| 2026-05-05 14:06 | 29.68639 | 74.93975 | 36878 ft | 468 kts | 5° |
| 2026-05-05 14:07 | 29.74962 | 74.95660 | 36877 ft | 467 kts | 5° |
| 2026-05-05 14:07 | 29.81277 | 74.97346 | 36877 ft | 468 kts | 5° |
| 2026-05-05 14:08 | 29.87625 | 74.99042 | 36878 ft | 468 kts | 5° |
| 2026-05-05 14:08 | 29.93950 | 75.00735 | 36877 ft | 468 kts | 5° |
| 2026-05-05 14:09 | 30.00287 | 75.02432 | 36877 ft | 468 kts | 5° |
| 2026-05-05 14:09 | 30.06628 | 75.04134 | 36877 ft | 469 kts | 5° |
| 2026-05-05 14:10 | 30.12969 | 75.05836 | 36878 ft | 469 kts | 5° |
| 2026-05-05 14:10 | 30.19326 | 75.07544 | 36878 ft | 469 kts | 5° |
| 2026-05-05 14:11 | 30.25655 | 75.09247 | 36878 ft | 469 kts | 5° |
| 2026-05-05 14:11 | 30.32013 | 75.10960 | 36878 ft | 470 kts | 5° |
| 2026-05-05 14:12 | 30.38339 | 75.12669 | 36877 ft | 470 kts | 5° |
| 2026-05-05 14:12 | 30.44684 | 75.14385 | 36877 ft | 470 kts | 5° |
| 2026-05-05 14:13 | 30.51049 | 75.16109 | 36877 ft | 469 kts | 5° |
| 2026-05-05 14:13 | 30.57396 | 75.17830 | 36877 ft | 469 kts | 5° |
| 2026-05-05 14:14 | 30.63764 | 75.19559 | 36877 ft | 470 kts | 5° |
| 2026-05-05 14:14 | 30.70098 | 75.21281 | 36877 ft | 470 kts | 5° |
| 2026-05-05 14:15 | 30.76426 | 75.23004 | 36876 ft | 470 kts | 5° |
| 2026-05-05 14:15 | 30.82830 | 75.24749 | 36877 ft | 470 kts | 5° |
| 2026-05-05 14:16 | 30.89182 | 75.26484 | 36877 ft | 470 kts | 5° |
| 2026-05-05 14:16 | 30.95541 | 75.28220 | 36876 ft | 470 kts | 5° |
| 2026-05-05 14:17 | 31.01871 | 75.29950 | 36877 ft | 469 kts | 6° |
| 2026-05-05 14:17 | 31.08230 | 75.31692 | 36875 ft | 467 kts | 6° |
| 2026-05-05 14:18 | 31.14557 | 75.33431 | 36880 ft | 468 kts | 5° |
| 2026-05-05 14:18 | 31.20879 | 75.35165 | 36876 ft | 467 kts | 6° |
| 2026-05-05 14:19 | 31.27233 | 75.36912 | 36872 ft | 466 kts | 5° |
| 2026-05-05 14:19 | 31.33571 | 75.38658 | 36877 ft | 467 kts | 6° |
| 2026-05-05 14:20 | 31.39867 | 75.40397 | 36877 ft | 466 kts | 6° |
| 2026-05-05 14:20 | 31.46136 | 75.42129 | 36877 ft | 466 kts | 5° |
| 2026-05-05 14:21 | 31.52436 | 75.43874 | 36877 ft | 467 kts | 5° |
| 2026-05-05 14:21 | 31.58761 | 75.45627 | 36875 ft | 467 kts | 6° |
| 2026-05-05 14:22 | 31.65108 | 75.47389 | 36876 ft | 468 kts | 6° |
| 2026-05-05 14:22 | 31.71451 | 75.49152 | 36875 ft | 467 kts | 6° |
| 2026-05-05 14:23 | 31.77766 | 75.50909 | 36876 ft | 469 kts | 6° |
| 2026-05-05 14:23 | 31.84082 | 75.52672 | 36878 ft | 468 kts | 6° |
| 2026-05-05 14:24 | 31.90419 | 75.54445 | 36875 ft | 466 kts | 6° |
| 2026-05-05 14:24 | 31.96720 | 75.56207 | 36877 ft | 468 kts | 6° |
| 2026-05-05 14:25 | 32.03028 | 75.57976 | 36878 ft | 467 kts | 6° |
| 2026-05-05 14:25 | 32.09344 | 75.59752 | 36877 ft | 468 kts | 6° |
| 2026-05-05 14:26 | 32.15688 | 75.61383 | 36873 ft | 463 kts | 1° |
| 2026-05-05 14:26 | 32.22004 | 75.61871 | 36870 ft | 449 kts | 348° |
| 2026-05-05 14:27 | 32.28072 | 75.60510 | 36876 ft | 438 kts | 338° |
| 2026-05-05 14:27 | 32.33964 | 75.58699 | 36875 ft | 437 kts | 338° |
| 2026-05-05 14:28 | 32.39843 | 75.56903 | 36878 ft | 438 kts | 338° |
| 2026-05-05 14:28 | 32.45756 | 75.55108 | 36876 ft | 437 kts | 338° |
| 2026-05-05 14:29 | 32.48709 | 75.54215 | 36574 ft | 438 kts | 338° |
| 2026-05-05 14:29 | 32.51608 | 75.53339 | 36026 ft | 437 kts | 338° |
| 2026-05-05 14:29 | 32.54558 | 75.52445 | 35346 ft | 438 kts | 338° |
| 2026-05-05 14:29 | 32.57504 | 75.51550 | 34651 ft | 438 kts | 338° |
| 2026-05-05 14:30 | 32.60455 | 75.50654 | 33947 ft | 439 kts | 338° |
| 2026-05-05 14:30 | 32.63430 | 75.49752 | 33209 ft | 440 kts | 339° |
| 2026-05-05 14:30 | 32.66386 | 75.48856 | 32497 ft | 440 kts | 339° |
| 2026-05-05 14:30 | 32.69341 | 75.47957 | 31760 ft | 440 kts | 339° |
| 2026-05-05 14:31 | 32.72315 | 75.47051 | 31030 ft | 440 kts | 339° |
| 2026-05-05 14:31 | 32.75243 | 75.46162 | 30334 ft | 440 kts | 340° |
| 2026-05-05 14:31 | 32.78229 | 75.45255 | 29548 ft | 441 kts | 340° |
| 2026-05-05 14:31 | 32.81153 | 75.44361 | 28757 ft | 442 kts | 340° |
| 2026-05-05 14:32 | 32.84128 | 75.43453 | 27983 ft | 442 kts | 340° |
| 2026-05-05 14:32 | 32.87123 | 75.42542 | 27200 ft | 442 kts | 341° |
| 2026-05-05 14:32 | 32.90080 | 75.41641 | 26339 ft | 444 kts | 341° |
| 2026-05-05 14:32 | 32.93059 | 75.40733 | 25398 ft | 447 kts | 341° |
| 2026-05-05 14:33 | 32.96079 | 75.39809 | 24393 ft | 451 kts | 342° |
| 2026-05-05 14:33 | 32.99113 | 75.38878 | 23482 ft | 451 kts | 343° |
| 2026-05-05 14:33 | 33.02095 | 75.37963 | 22911 ft | 443 kts | 343° |
| 2026-05-05 14:33 | 33.05078 | 75.37047 | 22258 ft | 438 kts | 345° |
| 2026-05-05 14:34 | 33.07991 | 75.36153 | 21613 ft | 434 kts | 345° |
| 2026-05-05 14:34 | 33.10915 | 75.35257 | 20930 ft | 431 kts | 346° |